createdAt,value
2022-08-17T00:01:31.445Z,18.87
2022-08-17T00:04:19.058Z,17.80
2022-08-17T00:06:46.065Z,17.27
2022-08-17T00:09:18.925Z,18.47
2022-08-17T00:12:35.476Z,17.83
2022-08-17T00:14:36.014Z,16.90
2022-08-17T00:17:04.570Z,16.57
2022-08-17T00:19:32.603Z,16.43
2022-08-17T00:22:33.912Z,14.87
2022-08-17T00:24:47.091Z,14.63
2022-08-17T00:27:13.536Z,15.27
2022-08-17T00:29:40.077Z,16.70
2022-08-17T00:33:15.072Z,14.30
2022-08-17T00:34:55.371Z,15.40
2022-08-17T00:37:21.798Z,14.50
2022-08-17T00:39:48.239Z,18.33
2022-08-17T00:42:18.169Z,15.57
2022-08-17T00:44:45.331Z,16.33
2022-08-17T00:47:11.801Z,16.10
2022-08-17T00:49:38.227Z,14.43
2022-08-17T00:52:15.284Z,14.50
2022-08-17T00:54:44.802Z,16.00
2022-08-17T00:57:18.040Z,14.47
2022-08-17T00:59:51.111Z,15.43
2022-08-17T01:02:34.404Z,14.87
2022-08-17T01:05:10.616Z,16.33
2022-08-17T01:07:37.965Z,14.73
2022-08-17T01:10:07.520Z,15.40
2022-08-17T01:12:54.192Z,16.30
2022-08-17T01:15:20.615Z,17.00
2022-08-17T01:17:47.810Z,16.63
2022-08-17T01:20:14.352Z,14.73
2022-08-17T01:22:40.905Z,15.63
2022-08-17T01:25:08.840Z,16.03
2022-08-17T01:27:36.927Z,14.87
2022-08-17T01:30:57.465Z,14.10
2022-08-17T01:32:54.988Z,15.60
2022-08-17T01:35:21.416Z,16.33
2022-08-17T01:37:47.946Z,16.47
2022-08-17T01:40:33.490Z,14.93
2022-08-17T01:43:19.945Z,15.07
2022-08-17T01:45:48.847Z,16.53
2022-08-17T01:48:34.338Z,14.97
2022-08-17T01:51:01.226Z,15.33
2022-08-17T01:53:36.641Z,14.23
2022-08-17T01:56:09.124Z,14.73
2022-08-17T01:58:36.817Z,14.73
2022-08-17T02:01:05.556Z,15.57
2022-08-17T02:03:34.500Z,16.53
2022-08-17T02:06:01.947Z,17.33
2022-08-17T02:08:36.989Z,14.70
2022-08-17T02:11:11.557Z,14.53
2022-08-17T02:13:38.686Z,14.37
2022-08-17T02:16:05.520Z,15.57
2022-08-17T02:18:31.931Z,15.27
2022-08-17T02:20:58.574Z,14.90
2022-08-17T02:23:28.662Z,14.30
2022-08-17T02:25:57.579Z,14.43
2022-08-17T02:28:23.986Z,16.90
2022-08-17T02:31:02.028Z,15.23
2022-08-17T02:33:42.775Z,15.73
2022-08-17T02:36:12.573Z,15.60
2022-08-17T02:38:40.649Z,14.97
2022-08-17T02:41:07.318Z,14.57
2022-08-17T02:43:34.876Z,14.73
2022-08-17T02:46:01.326Z,14.87
2022-08-17T02:48:31.238Z,16.70
2022-08-17T02:50:59.114Z,15.93
2022-08-17T02:53:25.911Z,16.20
2022-08-17T02:55:52.576Z,15.77
2022-08-17T02:58:34.326Z,17.23
2022-08-17T03:01:06.287Z,17.23
2022-08-17T03:03:33.058Z,16.03
2022-08-17T03:05:59.946Z,15.43
2022-08-17T03:08:26.347Z,15.27
2022-08-17T03:10:53.221Z,15.40
2022-08-17T03:13:20.036Z,14.27
2022-08-17T03:15:47.961Z,15.87
2022-08-17T03:18:24.308Z,15.43
2022-08-17T03:20:52.479Z,17.00
2022-08-17T03:23:18.912Z,20.00
2022-08-17T03:25:53.139Z,15.67
2022-08-17T03:28:20.829Z,18.67
2022-08-17T03:30:47.269Z,15.80
2022-08-17T03:33:14.668Z,17.20
2022-08-17T03:35:42.052Z,18.37
2022-08-17T03:38:10.440Z,18.10
2022-08-17T03:40:56.997Z,18.53
2022-08-17T03:43:24.151Z,18.37
2022-08-17T03:46:26.843Z,19.20
2022-08-17T03:49:13.879Z,19.37
2022-08-17T03:51:59.323Z,21.33
2022-08-17T03:54:44.450Z,17.93
2022-08-17T03:57:11.692Z,18.70
2022-08-17T03:59:39.126Z,16.47
2022-08-17T04:02:09.638Z,19.20
2022-08-17T04:04:37.124Z,18.17
2022-08-17T04:07:04.074Z,16.43
2022-08-17T04:09:30.473Z,18.90
2022-08-17T04:11:57.294Z,19.23
2022-08-17T04:14:31.095Z,16.73
2022-08-17T04:16:57.520Z,18.90
2022-08-17T04:19:23.922Z,18.83
2022-08-17T04:21:50.350Z,19.43
2022-08-17T04:24:16.782Z,17.93
2022-08-17T04:26:52.657Z,20.50
2022-08-17T04:29:21.327Z,18.77
2022-08-17T04:31:48.049Z,16.37
2022-08-17T04:34:14.563Z,15.80
2022-08-17T04:36:47.980Z,15.07
2022-08-17T04:39:16.808Z,14.67
2022-08-17T04:42:01.597Z,15.97
2022-08-17T04:44:37.559Z,14.87
2022-08-17T04:47:04.540Z,17.90
2022-08-17T04:49:30.998Z,15.43
2022-08-17T04:52:00.086Z,16.60
2022-08-17T04:54:29.107Z,15.50
2022-08-17T04:56:55.515Z,16.83
2022-08-17T04:59:22.587Z,14.97
2022-08-17T05:01:51.543Z,17.10
2022-08-17T05:04:33.788Z,15.23
2022-08-17T05:07:01.121Z,14.20
2022-08-17T05:09:27.520Z,16.20
2022-08-17T05:11:55.317Z,14.73
2022-08-17T05:14:32.895Z,13.80
2022-08-17T05:17:01.217Z,12.13
2022-08-17T05:19:28.612Z,12.93
2022-08-17T05:21:55.017Z,13.77
2022-08-17T05:24:38.315Z,13.17
2022-08-17T05:27:06.549Z,14.60
2022-08-17T05:29:35.179Z,14.63
2022-08-17T05:32:38.805Z,12.43
2022-08-17T05:34:59.881Z,14.80
2022-08-17T05:37:26.311Z,13.30
2022-08-17T05:39:54.103Z,12.80
2022-08-17T05:42:21.199Z,13.27
2022-08-17T05:44:47.638Z,13.47
2022-08-17T05:47:14.180Z,12.77
2022-08-17T05:49:40.749Z,14.67
2022-08-17T05:52:13.209Z,12.83
2022-08-17T05:55:10.505Z,14.70
2022-08-17T05:57:47.502Z,12.87
2022-08-17T06:00:37.177Z,15.73
2022-08-17T06:03:18.848Z,18.83
2022-08-17T06:06:19.415Z,17.13
2022-08-17T06:09:01.424Z,12.67
2022-08-17T06:11:44.443Z,16.10
2022-08-17T06:14:38.700Z,14.83
2022-08-17T06:17:11.126Z,16.50
2022-08-17T06:19:59.682Z,16.60
2022-08-17T06:22:36.267Z,16.20
2022-08-17T06:25:10.204Z,17.23
2022-08-17T06:27:54.085Z,14.17
2022-08-17T06:30:27.085Z,17.27
2022-08-17T06:32:59.552Z,19.63
2022-08-17T06:35:37.096Z,16.77
2022-08-17T06:38:37.607Z,15.90
2022-08-17T06:41:37.794Z,18.67
2022-08-17T06:44:49.876Z,17.57
2022-08-17T06:47:28.863Z,19.90
2022-08-17T06:50:17.256Z,18.00
2022-08-17T06:53:11.079Z,15.33
2022-08-17T06:56:06.639Z,16.33
2022-08-17T06:58:35.759Z,17.40
2022-08-17T07:01:12.958Z,20.70
2022-08-17T07:04:11.999Z,16.10
2022-08-17T07:06:51.092Z,14.70
2022-08-17T07:09:26.433Z,16.67
2022-08-17T07:11:57.706Z,16.37
2022-08-17T07:14:51.655Z,15.40
2022-08-17T07:17:20.401Z,19.77
2022-08-17T07:19:49.725Z,16.43
2022-08-17T07:22:27.841Z,18.30
2022-08-17T07:24:58.410Z,13.90
2022-08-17T07:27:28.509Z,16.33
2022-08-17T07:30:10.359Z,16.20
2022-08-17T07:32:45.180Z,18.40
2022-08-17T07:35:15.477Z,15.60
2022-08-17T07:37:55.635Z,17.93
2022-08-17T07:40:24.642Z,14.73
2022-08-17T07:43:04.966Z,15.10
2022-08-17T07:45:50.734Z,17.10
2022-08-17T07:48:22.013Z,12.70
2022-08-17T07:50:50.716Z,15.97
2022-08-17T07:53:19.854Z,14.03
2022-08-17T07:55:46.553Z,15.43
2022-08-17T07:58:19.368Z,16.43
2022-08-17T08:00:46.686Z,18.57
2022-08-17T08:03:20.307Z,18.53
2022-08-17T08:05:56.710Z,16.83
2022-08-17T08:08:35.318Z,17.53
2022-08-17T08:11:09.584Z,18.30
2022-08-17T08:13:42.540Z,19.20
2022-08-17T08:16:19.978Z,17.30
2022-08-17T08:18:55.676Z,22.67
2022-08-17T08:21:48.713Z,21.30
2022-08-17T08:24:36.641Z,18.83
2022-08-17T08:27:42.276Z,17.47
2022-08-17T08:30:14.368Z,17.47
2022-08-17T08:33:12.507Z,18.13
2022-08-17T08:35:49.566Z,16.77
2022-08-17T08:38:15.895Z,18.37
2022-08-17T08:41:10.650Z,18.03
2022-08-17T08:43:50.854Z,16.03
2022-08-17T08:46:36.438Z,16.03
2022-08-17T08:49:33.861Z,19.40
2022-08-17T08:52:22.778Z,20.07
2022-08-17T08:54:59.562Z,18.37
2022-08-17T08:57:37.975Z,17.07
2022-08-17T09:00:20.260Z,18.73
2022-08-17T09:03:06.181Z,17.00
2022-08-17T09:05:52.795Z,20.87
2022-08-17T09:08:44.185Z,17.73
2022-08-17T09:12:01.070Z,19.73
2022-08-17T09:15:17.663Z,26.70
2022-08-17T09:19:01.332Z,25.10
2022-08-17T09:21:01.320Z,19.10
2022-08-17T09:23:39.309Z,21.60
2022-08-17T09:26:24.168Z,26.67
2022-08-17T09:28:53.118Z,21.53
2022-08-17T09:31:26.801Z,21.47
2022-08-17T09:33:59.010Z,20.00
2022-08-17T09:36:31.188Z,19.87
2022-08-17T09:39:02.674Z,18.87
2022-08-17T09:41:49.177Z,22.50
2022-08-17T09:44:23.180Z,20.37
2022-08-17T09:47:01.649Z,18.00
2022-08-17T09:49:36.881Z,16.07
2022-08-17T09:52:22.952Z,18.77
2022-08-17T09:54:51.611Z,17.37
2022-08-17T09:57:32.734Z,17.30
2022-08-17T10:00:28.525Z,17.63
2022-08-17T10:03:30.274Z,15.80
2022-08-17T10:06:02.700Z,16.10
2022-08-17T10:08:57.243Z,18.00
2022-08-17T10:11:57.843Z,16.23
2022-08-17T10:14:37.775Z,14.23
2022-08-17T10:17:13.261Z,13.53
2022-08-17T10:20:03.062Z,12.60
2022-08-17T10:22:56.302Z,13.20
2022-08-17T10:25:54.667Z,14.00
2022-08-17T10:28:30.304Z,15.70
2022-08-17T10:31:31.089Z,14.00
2022-08-17T10:34:06.597Z,13.90
2022-08-17T10:36:54.918Z,14.60
2022-08-17T10:39:36.624Z,14.50
2022-08-17T10:42:30.400Z,14.63
2022-08-17T10:45:05.303Z,15.53
2022-08-17T10:48:05.341Z,13.83
2022-08-17T10:50:57.644Z,13.77
2022-08-17T10:53:48.409Z,15.80
2022-08-17T10:56:15.453Z,14.60
2022-08-17T10:59:00.457Z,14.63
2022-08-17T11:01:33.006Z,14.80
2022-08-17T11:04:19.587Z,18.13
2022-08-17T11:07:02.151Z,17.30
2022-08-17T11:10:03.386Z,15.00
2022-08-17T11:13:03.865Z,14.03
2022-08-17T11:15:52.421Z,11.47
2022-08-17T11:18:29.121Z,14.70
2022-08-17T11:21:43.236Z,13.60
2022-08-17T11:24:24.111Z,12.23
2022-08-17T11:27:18.886Z,13.63
2022-08-17T11:30:01.513Z,13.67
2022-08-17T11:32:37.248Z,14.20
2022-08-17T11:35:21.893Z,14.07
2022-08-17T11:38:16.379Z,12.33
2022-08-17T11:41:15.288Z,14.37
2022-08-17T11:44:02.058Z,12.90
2022-08-17T11:46:57.248Z,12.27
2022-08-17T11:50:11.634Z,12.27
2022-08-17T11:52:42.372Z,12.37
2022-08-17T11:55:39.330Z,13.50
2022-08-17T11:58:37.375Z,15.03
2022-08-17T12:01:13.633Z,20.27
2022-08-17T12:03:54.118Z,20.40
2022-08-17T12:06:24.687Z,14.47
2022-08-17T12:09:02.326Z,17.63
2022-08-17T12:11:55.575Z,18.37
2022-08-17T12:14:51.358Z,15.60
2022-08-17T12:17:26.528Z,15.23
2022-08-17T12:20:15.469Z,14.17
2022-08-17T12:22:56.292Z,12.37
2022-08-17T12:25:46.445Z,15.90
2022-08-17T12:28:31.987Z,15.37
2022-08-17T12:31:02.729Z,13.70
2022-08-17T12:33:29.619Z,13.77
2022-08-17T12:36:05.558Z,17.77
2022-08-17T12:38:37.829Z,12.73
2022-08-17T12:41:27.104Z,12.57
2022-08-17T12:44:02.020Z,14.17
2022-08-17T12:46:33.498Z,13.87
2022-08-17T12:49:35.503Z,13.70
2022-08-17T12:52:19.785Z,14.20
2022-08-17T12:55:06.910Z,17.30
2022-08-17T12:57:39.694Z,15.83
2022-08-17T13:00:21.766Z,15.30
2022-08-17T13:02:57.793Z,14.63
2022-08-17T13:05:28.129Z,17.63
2022-08-17T13:07:56.520Z,18.13
2022-08-17T13:10:35.288Z,17.30
2022-08-17T13:13:05.377Z,17.67
2022-08-17T13:15:44.839Z,15.57
2022-08-17T13:18:38.798Z,17.60
2022-08-17T13:21:11.240Z,16.40
2022-08-17T13:23:38.032Z,15.17
2022-08-17T13:26:15.823Z,15.40
2022-08-17T13:28:49.715Z,15.80
2022-08-17T13:31:28.260Z,15.83
2022-08-17T13:34:13.489Z,16.63
2022-08-17T13:36:41.298Z,17.93
2022-08-17T13:39:18.687Z,15.53
2022-08-17T13:41:46.485Z,18.30
2022-08-17T13:44:37.119Z,15.00
2022-08-17T13:47:17.499Z,17.67
2022-08-17T13:49:48.870Z,17.17
2022-08-17T13:52:38.019Z,17.63
2022-08-17T13:55:14.902Z,16.77
2022-08-17T13:57:46.584Z,18.93
2022-08-17T14:00:34.240Z,17.47
2022-08-17T14:03:03.272Z,18.03
2022-08-17T14:05:31.100Z,18.60
2022-08-17T14:08:06.913Z,18.97
2022-08-17T14:10:36.309Z,19.90
2022-08-17T14:13:03.361Z,21.83
2022-08-17T14:15:55.078Z,18.73
2022-08-17T14:18:18.021Z,21.30
2022-08-17T14:21:02.230Z,21.70
2022-08-17T14:23:32.863Z,22.67
2022-08-17T14:25:59.829Z,21.30
2022-08-17T14:28:26.531Z,25.03
2022-08-17T14:30:54.446Z,21.23
2022-08-17T14:33:24.618Z,19.80
2022-08-17T14:35:53.458Z,22.03
2022-08-17T14:38:20.731Z,22.23
2022-08-17T14:40:47.964Z,19.97
2022-08-17T14:43:15.863Z,20.13
2022-08-17T14:45:42.992Z,21.80
2022-08-17T14:48:10.308Z,21.57
2022-08-17T14:50:40.881Z,20.17
2022-08-17T14:53:09.815Z,18.43
2022-08-17T14:55:39.663Z,20.83
2022-08-17T14:58:07.426Z,22.97
2022-08-17T15:00:34.176Z,21.43
2022-08-17T15:03:01.496Z,21.63
2022-08-17T15:05:31.961Z,21.27
2022-08-17T15:07:59.033Z,24.53
2022-08-17T15:10:26.069Z,25.50
2022-08-17T15:12:52.545Z,22.07
2022-08-17T15:15:19.089Z,20.93
2022-08-17T15:17:46.156Z,19.30
2022-08-17T15:20:15.950Z,22.03
2022-08-17T15:22:43.667Z,21.33
2022-08-17T15:25:12.181Z,20.43
2022-08-17T15:27:39.498Z,20.83
2022-08-17T15:30:07.110Z,18.67
2022-08-17T15:32:38.163Z,21.77
2022-08-17T15:35:08.795Z,19.37
2022-08-17T15:37:35.370Z,21.57
2022-08-17T15:40:02.010Z,21.17
2022-08-17T15:42:29.269Z,22.63
2022-08-17T15:44:55.905Z,24.77
2022-08-17T15:47:23.117Z,23.67
2022-08-17T15:49:50.641Z,20.70
2022-08-17T15:52:23.222Z,24.40
2022-08-17T15:54:58.219Z,22.50
2022-08-17T15:57:25.775Z,25.07
2022-08-17T15:59:58.509Z,23.00
2022-08-17T16:03:14.193Z,24.83
2022-08-17T16:05:22.002Z,23.97
2022-08-17T16:07:51.473Z,24.03
2022-08-17T16:10:19.278Z,28.20
2022-08-17T16:12:47.657Z,24.70
2022-08-17T16:15:15.105Z,24.27
2022-08-17T16:17:41.708Z,22.43
2022-08-17T16:20:10.410Z,22.77
2022-08-17T16:22:48.801Z,24.33
2022-08-17T16:25:20.891Z,21.87
2022-08-17T16:27:50.404Z,21.37
2022-08-17T16:30:17.863Z,19.27
2022-08-17T16:32:45.341Z,23.10
2022-08-17T16:35:16.111Z,21.33
2022-08-17T16:37:45.549Z,23.13
2022-08-17T16:40:14.229Z,21.13
2022-08-17T16:42:42.775Z,23.03
2022-08-17T16:45:14.583Z,19.77
2022-08-17T16:47:41.917Z,22.93
2022-08-17T16:50:11.647Z,24.63
2022-08-17T16:52:40.511Z,20.73
2022-08-17T16:55:09.555Z,23.20
2022-08-17T16:57:50.412Z,23.13
2022-08-17T17:00:19.227Z,18.77
2022-08-17T17:02:47.571Z,23.77
2022-08-17T17:05:42.310Z,20.50
2022-08-17T17:08:13.148Z,21.17
2022-08-17T17:10:47.529Z,22.97
2022-08-17T17:13:25.181Z,22.60
2022-08-17T17:16:14.372Z,20.63
2022-08-17T17:18:49.550Z,21.20
2022-08-17T17:21:23.676Z,21.83
2022-08-17T17:23:57.000Z,18.70
2022-08-17T17:26:45.496Z,23.20
2022-08-17T17:29:58.044Z,23.80
2022-08-17T17:32:55.740Z,18.57
2022-08-17T17:35:31.871Z,22.33
2022-08-17T17:38:04.265Z,20.23
2022-08-17T17:40:44.292Z,23.10
2022-08-17T17:43:37.550Z,21.90
2022-08-17T17:46:27.281Z,26.13
2022-08-17T17:48:56.513Z,22.37
2022-08-17T17:52:06.567Z,28.37
2022-08-17T17:54:53.944Z,28.83
2022-08-17T17:57:58.667Z,27.87
2022-08-17T18:00:34.106Z,27.40
2022-08-17T18:03:25.147Z,28.73
2022-08-17T18:06:01.201Z,27.00
2022-08-17T18:09:19.369Z,29.30
2022-08-17T18:12:19.865Z,28.20
2022-08-17T18:15:07.545Z,25.40
2022-08-17T18:17:36.216Z,28.30
2022-08-17T18:20:06.850Z,30.27
2022-08-17T18:22:33.277Z,27.83
2022-08-17T18:24:59.828Z,27.73
2022-08-17T18:27:38.275Z,26.70
2022-08-17T18:30:10.767Z,30.10
2022-08-17T18:32:42.422Z,27.67
2022-08-17T18:35:08.763Z,30.70
2022-08-17T18:37:49.029Z,31.37
2022-08-17T18:40:19.388Z,28.37
2022-08-17T18:43:08.837Z,28.57
2022-08-17T18:45:38.450Z,29.67
2022-08-17T18:48:16.498Z,31.27
2022-08-17T18:50:42.945Z,30.33
2022-08-17T18:53:36.545Z,30.47
2022-08-17T18:56:27.932Z,27.33
2022-08-17T18:59:23.085Z,26.63
2022-08-17T19:02:10.009Z,28.27
2022-08-17T19:05:00.339Z,20.23
2022-08-17T19:07:33.018Z,28.33
2022-08-17T19:10:08.994Z,27.33
2022-08-17T19:12:43.846Z,29.87
2022-08-17T19:15:14.719Z,21.73
2022-08-17T19:17:53.337Z,28.50
2022-08-17T19:20:26.540Z,28.07
2022-08-17T19:23:12.644Z,28.43
2022-08-17T19:25:46.148Z,27.23
2022-08-17T19:28:29.717Z,28.53
2022-08-17T19:31:03.996Z,25.10
2022-08-17T19:33:32.060Z,26.90
2022-08-17T19:36:18.752Z,27.47
2022-08-17T19:39:10.009Z,24.67
2022-08-17T19:42:03.119Z,24.20
2022-08-17T19:44:40.374Z,22.10
2022-08-17T19:47:36.650Z,22.90
2022-08-17T19:50:18.899Z,22.67
2022-08-17T19:52:59.149Z,20.90
2022-08-17T19:55:32.001Z,19.27
2022-08-17T19:58:21.457Z,22.13
2022-08-17T20:00:51.684Z,18.70
2022-08-17T20:03:30.211Z,21.00
2022-08-17T20:06:15.277Z,21.43
2022-08-17T20:08:53.627Z,22.43
2022-08-17T20:11:37.535Z,21.70
2022-08-17T20:14:13.081Z,21.03
2022-08-17T20:16:39.491Z,21.40
2022-08-17T20:19:25.017Z,20.27
2022-08-17T20:22:03.250Z,20.93
2022-08-17T20:24:50.947Z,17.90
2022-08-17T20:27:31.958Z,20.47
2022-08-17T20:30:06.957Z,18.80
2022-08-17T20:32:52.586Z,17.73
2022-08-17T20:35:28.323Z,19.47
2022-08-17T20:37:59.154Z,19.03
2022-08-17T20:40:38.339Z,20.20
2022-08-17T20:43:29.801Z,22.63
2022-08-17T20:46:15.578Z,19.17
2022-08-17T20:48:46.116Z,20.07
2022-08-17T20:51:22.897Z,19.30
2022-08-17T20:53:49.337Z,19.77
2022-08-17T20:56:46.877Z,21.10
2022-08-17T20:59:25.668Z,20.57
2022-08-17T21:02:18.769Z,21.70
2022-08-17T21:04:52.761Z,18.00
2022-08-17T21:07:30.298Z,19.00
2022-08-17T21:10:17.722Z,19.80
2022-08-17T21:13:06.004Z,20.43
2022-08-17T21:15:43.521Z,20.50
2022-08-17T21:18:44.134Z,24.37
2022-08-17T21:21:17.706Z,20.73
2022-08-17T21:24:16.367Z,22.20
2022-08-17T21:27:17.780Z,26.83
2022-08-17T21:30:10.267Z,24.90
2022-08-17T21:32:41.973Z,25.43
2022-08-17T21:35:12.365Z,24.33
2022-08-17T21:37:53.119Z,22.67
2022-08-17T21:40:25.810Z,24.90
2022-08-17T21:43:00.281Z,23.13
2022-08-17T21:45:30.439Z,25.33
2022-08-17T21:48:19.559Z,27.70
2022-08-17T21:50:57.910Z,28.60
2022-08-17T21:53:53.932Z,22.87
2022-08-17T21:56:32.003Z,25.13
2022-08-17T21:59:00.673Z,25.23
2022-08-17T22:01:57.557Z,27.13
2022-08-17T22:04:28.972Z,23.40
2022-08-17T22:06:58.085Z,27.13
2022-08-17T22:09:28.589Z,22.93
2022-08-17T22:12:07.389Z,24.70
2022-08-17T22:14:53.044Z,23.73
2022-08-17T22:17:35.489Z,25.10
2022-08-17T22:20:06.922Z,23.97
2022-08-17T22:22:57.167Z,20.63
2022-08-17T22:25:26.294Z,24.00
2022-08-17T22:28:00.213Z,21.60
2022-08-17T22:30:34.853Z,22.50
2022-08-17T22:33:31.276Z,20.77
2022-08-17T22:36:33.731Z,21.27
2022-08-17T22:39:04.024Z,21.53
2022-08-17T22:41:48.074Z,21.47
2022-08-17T22:44:26.111Z,21.27
2022-08-17T22:46:55.637Z,18.23
2022-08-17T22:49:29.178Z,21.30
2022-08-17T22:52:16.198Z,21.77
2022-08-17T22:55:08.320Z,18.57
2022-08-17T22:57:56.555Z,19.30
2022-08-17T23:00:41.084Z,18.40
2022-08-17T23:03:12.695Z,20.73
2022-08-17T23:05:43.493Z,18.27
2022-08-17T23:08:11.527Z,18.20
2022-08-17T23:10:41.225Z,17.17
2022-08-17T23:13:12.022Z,19.53
2022-08-17T23:15:40.606Z,17.10
2022-08-17T23:18:07.411Z,16.90
2022-08-17T23:20:36.313Z,18.77
2022-08-17T23:23:06.733Z,19.67
2022-08-17T23:25:35.029Z,18.77
2022-08-17T23:28:04.301Z,18.47
2022-08-17T23:30:33.078Z,16.47
2022-08-17T23:33:14.252Z,16.63
2022-08-17T23:35:41.125Z,17.80
2022-08-17T23:38:09.742Z,16.47
2022-08-17T23:40:37.677Z,17.70
2022-08-17T23:43:15.389Z,18.23
2022-08-17T23:45:53.946Z,15.40
2022-08-17T23:48:28.545Z,16.60
2022-08-17T23:51:04.721Z,16.00
2022-08-17T23:53:34.442Z,17.40
2022-08-17T23:56:09.296Z,17.27
2022-08-17T23:58:38.350Z,14.50
